Aviation Digital Data Service (ADDS)

Output produced by METARs form (0747 UTC 18 February 2019)
found at http://www.aviationweather.gov/metar/data/
 
METAR text: LFRH 180730Z AUTO 13002KT 0550 R25/0700N R07/0750N FG VV/// 08/07 Q1017 BECMG 21010KT 9999 NSW BKN045
Conditions at: LFRH (LORIENT/LANN BIH, FR) observed 0730 UTC 18 February 2019
Temperature: 8.0°C (46°F)
Dewpoint: 7.0°C (45°F) [RH = 93%]
Pressure (altimeter): 30.03 inches Hg (1017.0 mb)
Winds: from the SE (130 degrees) at 2 MPH (2 knots; 1.0 m/s)
Visibility: 0.34 miles (0.55 km)
Ceiling: indefinite ceiling with vertical visibility of 0 feet AGL
Clouds: obscured sky
Weather: FG  (fog)

METAR text: LFRH 180700Z AUTO 14003KT 2000 1200 R25/1500D R07/P2000 BR BKN001 BKN011 OVC050 07/07 Q1016 BECMG 21010KT 9999 NSW BKN045
Conditions at: LFRH (LORIENT/LANN BIH, FR) observed 0700 UTC 18 February 2019
Temperature: 7.0°C (45°F)
Dewpoint: 7.0°C (45°F) [RH = 100%]
Pressure (altimeter): 30.00 inches Hg (1016.0 mb)
Winds: from the SE (140 degrees) at 3 MPH (3 knots; 1.5 m/s)
Visibility: 1.24 miles (2.00 km)
Ceiling: 100 feet AGL
Clouds: broken clouds at 100 feet AGL
broken clouds at 1100 feet AGL
overcast cloud deck at 5000 feet AGL
Weather: BR  (mist)

METAR text: LFRH 180630Z AUTO 15004KT 3300 BR SCT002 OVC048 07/07 Q1016 TEMPO BKN001 BECMG 21010KT 9999 NSW
Conditions at: LFRH (LORIENT/LANN BIH, FR) observed 0630 UTC 18 February 2019
Temperature: 7.0°C (45°F)
Dewpoint: 7.0°C (45°F) [RH = 100%]
Pressure (altimeter): 30.00 inches Hg (1016.0 mb)
Winds: from the SSE (150 degrees) at 5 MPH (4 knots; 2.1 m/s)
Visibility: 2.05 miles (3.30 km)
Ceiling: 4800 feet AGL
Clouds: scattered clouds at 200 feet AGL
overcast cloud deck at 4800 feet AGL
Weather: BR  (mist)

METAR text: LFRH 180600Z AUTO VRB02KT 3000 BR BKN002 BKN048 OVC056 07/07 Q1016 BECMG BKN045
Conditions at: LFRH (LORIENT/LANN BIH, FR) observed 0600 UTC 18 February 2019
Temperature: 7.0°C (45°F)
Dewpoint: 7.0°C (45°F) [RH = 100%]
Pressure (altimeter): 30.00 inches Hg (1016.0 mb)
Winds: variable direction winds at 2 MPH (2 knots; 1.0 m/s)
Visibility: 1.86 miles (2.99 km)
Ceiling: 200 feet AGL
Clouds: broken clouds at 200 feet AGL
broken clouds at 4800 feet AGL
overcast cloud deck at 5600 feet AGL
Weather: BR  (mist)

METAR text: LFRH 180530Z AUTO VRB02KT 4400 BR NSC 08/07 Q1016 NOSIG
Conditions at: LFRH (LORIENT/LANN BIH, FR) observed 0530 UTC 18 February 2019
Temperature: 8.0°C (46°F)
Dewpoint: 7.0°C (45°F) [RH = 93%]
Pressure (altimeter): 30.00 inches Hg (1016.0 mb)
Winds: variable direction winds at 2 MPH (2 knots; 1.0 m/s)
Visibility: 2.73 miles (4.39 km)
Ceiling: at least 12,000 feet AGL
Clouds: sky clear below 12,000 feet AGL
Weather: BR  (mist)

METAR text: LFRH 180500Z AUTO 34003KT 4200 BR SCT049 OVC056 07/07 Q1016 BECMG 0500 FG VV///
Conditions at: LFRH (LORIENT/LANN BIH, FR) observed 0500 UTC 18 February 2019
Temperature: 7.0°C (45°F)
Dewpoint: 7.0°C (45°F) [RH = 100%]
Pressure (altimeter): 30.00 inches Hg (1016.0 mb)
Winds: from the NNW (340 degrees) at 3 MPH (3 knots; 1.5 m/s)
Visibility: 2.61 miles (4.20 km)
Ceiling: 5600 feet AGL
Clouds: scattered clouds at 4900 feet AGL
overcast cloud deck at 5600 feet AGL
Weather: BR  (mist)

METAR text: LFRH 180430Z AUTO 02003KT 2700 BR NSC 07/07 Q1016 BECMG 0500 FG VV///
Conditions at: LFRH (LORIENT/LANN BIH, FR) observed 0430 UTC 18 February 2019
Temperature: 7.0°C (45°F)
Dewpoint: 7.0°C (45°F) [RH = 100%]
Pressure (altimeter): 30.00 inches Hg (1016.0 mb)
Winds: from the NNE (20 degrees) at 3 MPH (3 knots; 1.5 m/s)
Visibility: 1.68 miles (2.70 km)
Ceiling: at least 12,000 feet AGL
Clouds: sky clear below 12,000 feet AGL
Weather: BR  (mist)

METAR text: LFRH 180400Z AUTO 07002KT 3100 BR FEW043 OVC060 07/07 Q1016 TEMPO 0200 FG BECMG VV///
Conditions at: LFRH (LORIENT/LANN BIH, FR) observed 0400 UTC 18 February 2019
Temperature: 7.0°C (45°F)
Dewpoint: 7.0°C (45°F) [RH = 100%]
Pressure (altimeter): 30.00 inches Hg (1016.0 mb)
Winds: from the ENE (70 degrees) at 2 MPH (2 knots; 1.0 m/s)
Visibility: 1.93 miles (3.11 km)
Ceiling: 6000 feet AGL
Clouds: few clouds at 4300 feet AGL
overcast cloud deck at 6000 feet AGL
Weather: BR  (mist)

METAR text: LFRH 180330Z AUTO 05002KT 3500 BR BKN042 OVC064 07/07 Q1017 TEMPO 0200 FG BECMG VV///
Conditions at: LFRH (LORIENT/LANN BIH, FR) observed 0330 UTC 18 February 2019
Temperature: 7.0°C (45°F)
Dewpoint: 7.0°C (45°F) [RH = 100%]
Pressure (altimeter): 30.03 inches Hg (1017.0 mb)
Winds: from the NE (50 degrees) at 2 MPH (2 knots; 1.0 m/s)
Visibility: 2.17 miles (3.49 km)
Ceiling: 4200 feet AGL
Clouds: broken clouds at 4200 feet AGL
overcast cloud deck at 6400 feet AGL
Weather: BR  (mist)

METAR text: LFRH 180300Z AUTO 10002KT 2500 BR FEW011 BKN043 OVC054 07/07 Q1017 TEMPO 0200 FG BECMG VV///
Conditions at: LFRH (LORIENT/LANN BIH, FR) observed 0300 UTC 18 February 2019
Temperature: 7.0°C (45°F)
Dewpoint: 7.0°C (45°F) [RH = 100%]
Pressure (altimeter): 30.03 inches Hg (1017.0 mb)
Winds: from the E (100 degrees) at 2 MPH (2 knots; 1.0 m/s)
Visibility: 1.55 miles (2.49 km)
Ceiling: 4300 feet AGL
Clouds: few clouds at 1100 feet AGL
broken clouds at 4300 feet AGL
overcast cloud deck at 5400 feet AGL
Weather: BR  (mist)

METAR text: LFRH 180230Z AUTO 10004KT 2300 1000 R25/1000D R07/P2000 BR FEW044 OVC056 06/06 Q1017 TEMPO 0200 FG BECMG VV///
Conditions at: LFRH (LORIENT/LANN BIH, FR) observed 0230 UTC 18 February 2019
Temperature: 6.0°C (43°F)
Dewpoint: 6.0°C (43°F) [RH = 100%]
Pressure (altimeter): 30.03 inches Hg (1017.0 mb)
Winds: from the E (100 degrees) at 5 MPH (4 knots; 2.1 m/s)
Visibility: 1.43 miles (2.30 km)
Ceiling: 5600 feet AGL
Clouds: few clouds at 4400 feet AGL
overcast cloud deck at 5600 feet AGL
Weather: BR  (mist)

METAR text: LFRH 180200Z AUTO 09003KT 1000 0900 R25/1000U R07/1900U BCFG FEW002 SCT045 OVC056 06/06 Q1017 TEMPO 0200 FG BECMG VV///
Conditions at: LFRH (LORIENT/LANN BIH, FR) observed 0200 UTC 18 February 2019
Temperature: 6.0°C (43°F)
Dewpoint: 6.0°C (43°F) [RH = 100%]
Pressure (altimeter): 30.03 inches Hg (1017.0 mb)
Winds: from the E (90 degrees) at 3 MPH (3 knots; 1.5 m/s)
Visibility: 0.62 miles (1.00 km)
Ceiling: 5600 feet AGL
Clouds: few clouds at 200 feet AGL
scattered clouds at 4500 feet AGL
overcast cloud deck at 5600 feet AGL
Weather: BCFG  (patches of fog)

METAR text: LFRH 180130Z AUTO 00000KT 0750 0650 R25/0750N R07/1000D FG NSC 07/07 Q1017 TEMPO 0200 FG BECMG VV///
Conditions at: LFRH (LORIENT/LANN BIH, FR) observed 0130 UTC 18 February 2019
Temperature: 7.0°C (45°F)
Dewpoint: 7.0°C (45°F) [RH = 100%]
Pressure (altimeter): 30.03 inches Hg (1017.0 mb)
Winds: calm
Visibility: 0.47 miles (0.76 km)
Ceiling: at least 12,000 feet AGL
Clouds: sky clear below 12,000 feet AGL
Weather: FG  (fog)

METAR text: LFRH 180100Z AUTO 07001KT 0700 0550 R25/0900U R07/0700D FG NSC 06/06 Q1018 TEMPO 0200 FG BECMG VV///
Conditions at: LFRH (LORIENT/LANN BIH, FR) observed 0100 UTC 18 February 2019
Temperature: 6.0°C (43°F)
Dewpoint: 6.0°C (43°F) [RH = 100%]
Pressure (altimeter): 30.06 inches Hg (1018.0 mb)
Winds: from the ENE (70 degrees) at 1 MPH (1 knots; 0.5 m/s)
Visibility: 0.43 miles (0.69 km)
Ceiling: at least 12,000 feet AGL
Clouds: sky clear below 12,000 feet AGL
Weather: FG  (fog)

METAR text: LFRH 180030Z AUTO 08003KT 0700 0500 R25/0600N R07/0800U FG VV/// 06/06 Q1018 TEMPO 0200 FG
Conditions at: LFRH (LORIENT/LANN BIH, FR) observed 0030 UTC 18 February 2019
Temperature: 6.0°C (43°F)
Dewpoint: 6.0°C (43°F) [RH = 100%]
Pressure (altimeter): 30.06 inches Hg (1018.0 mb)
Winds: from the E (80 degrees) at 3 MPH (3 knots; 1.5 m/s)
Visibility: 0.43 miles (0.69 km)
Ceiling: indefinite ceiling with vertical visibility of 0 feet AGL
Clouds: obscured sky
Weather: FG  (fog)

METAR text: LFRH 180000Z AUTO 09001KT 0650 0600 R25/0700D R07/1000U FG VV/// 06/06 Q1018 TEMPO 0200 FG
Conditions at: LFRH (LORIENT/LANN BIH, FR) observed 0000 UTC 18 February 2019
Temperature: 6.0°C (43°F)
Dewpoint: 6.0°C (43°F) [RH = 100%]
Pressure (altimeter): 30.06 inches Hg (1018.0 mb)
Winds: from the E (90 degrees) at 1 MPH (1 knots; 0.5 m/s)
Visibility: 0.40 miles (0.64 km)
Ceiling: indefinite ceiling with vertical visibility of 0 feet AGL
Clouds: obscured sky
Weather: FG  (fog)

METAR text: LFRH 172330Z AUTO VRB02KT 0400 0300 R25/0350N R07/0550N FG VV/// 07/07 Q1018 TEMPO 0200 FG
Conditions at: LFRH (LORIENT/LANN BIH, FR) observed 2330 UTC 17 February 2019
Temperature: 7.0°C (45°F)
Dewpoint: 7.0°C (45°F) [RH = 100%]
Pressure (altimeter): 30.06 inches Hg (1018.0 mb)
Winds: variable direction winds at 2 MPH (2 knots; 1.0 m/s)
Visibility: 0.25 miles (0.40 km)
Ceiling: indefinite ceiling with vertical visibility of 0 feet AGL
Clouds: obscured sky
Weather: FG  (fog)

METAR text: LFRH 172300Z AUTO 13002KT 0500 0450 R25/0600N R07/0600U FG VV/// 07/07 Q1018 NOSIG
Conditions at: LFRH (LORIENT/LANN BIH, FR) observed 2300 UTC 17 February 2019
Temperature: 7.0°C (45°F)
Dewpoint: 7.0°C (45°F) [RH = 100%]
Pressure (altimeter): 30.06 inches Hg (1018.0 mb)
Winds: from the SE (130 degrees) at 2 MPH (2 knots; 1.0 m/s)
Visibility: 0.31 miles (0.50 km)
Ceiling: indefinite ceiling with vertical visibility of 0 feet AGL
Clouds: obscured sky
Weather: FG  (fog)

METAR text: LFRH 172230Z AUTO 15003KT 0400 0300 R25/0350N R07/0550N FG VV/// 06/06 Q1018 NOSIG
Conditions at: LFRH (LORIENT/LANN BIH, FR) observed 2230 UTC 17 February 2019
Temperature: 6.0°C (43°F)
Dewpoint: 6.0°C (43°F) [RH = 100%]
Pressure (altimeter): 30.06 inches Hg (1018.0 mb)
Winds: from the SSE (150 degrees) at 3 MPH (3 knots; 1.5 m/s)
Visibility: 0.25 miles (0.40 km)
Ceiling: indefinite ceiling with vertical visibility of 0 feet AGL
Clouds: obscured sky
Weather: FG  (fog)

METAR text: LFRH 172200Z AUTO 14003KT 0300 0250 R25/0325N R07/0400N FG VV/// 07/06 Q1018 TEMPO 0500 FG
Conditions at: LFRH (LORIENT/LANN BIH, FR) observed 2200 UTC 17 February 2019
Temperature: 7.0°C (45°F)
Dewpoint: 6.0°C (43°F) [RH = 93%]
Pressure (altimeter): 30.06 inches Hg (1018.0 mb)
Winds: from the SE (140 degrees) at 3 MPH (3 knots; 1.5 m/s)
Visibility: 0.19 miles (0.31 km)
Ceiling: indefinite ceiling with vertical visibility of 0 feet AGL
Clouds: obscured sky
Weather: FG  (fog)

METAR text: LFRH 172130Z AUTO 10002KT 0300 0250 R25/0300N R07/0500N FG VV/// 06/06 Q1018 TEMPO 0500 FG
Conditions at: LFRH (LORIENT/LANN BIH, FR) observed 2130 UTC 17 February 2019
Temperature: 6.0°C (43°F)
Dewpoint: 6.0°C (43°F) [RH = 100%]
Pressure (altimeter): 30.06 inches Hg (1018.0 mb)
Winds: from the E (100 degrees) at 2 MPH (2 knots; 1.0 m/s)
Visibility: 0.19 miles (0.31 km)
Ceiling: indefinite ceiling with vertical visibility of 0 feet AGL
Clouds: obscured sky
Weather: FG  (fog)

METAR text: LFRH 172100Z AUTO 10002KT 0300 0250 R25/0300N R07/0700D FG VV/// 06/06 Q1018 TEMPO 0500 FG
Conditions at: LFRH (LORIENT/LANN BIH, FR) observed 2100 UTC 17 February 2019
Temperature: 6.0°C (43°F)
Dewpoint: 6.0°C (43°F) [RH = 100%]
Pressure (altimeter): 30.06 inches Hg (1018.0 mb)
Winds: from the E (100 degrees) at 2 MPH (2 knots; 1.0 m/s)
Visibility: 0.19 miles (0.31 km)
Ceiling: indefinite ceiling with vertical visibility of 0 feet AGL
Clouds: obscured sky
Weather: FG  (fog)

METAR text: LFRH 172030Z AUTO 00000KT 0450 0400 R25/0550U R07/0900U FG VV/// 07/07 Q1018 NOSIG
Conditions at: LFRH (LORIENT/LANN BIH, FR) observed 2030 UTC 17 February 2019
Temperature: 7.0°C (45°F)
Dewpoint: 7.0°C (45°F) [RH = 100%]
Pressure (altimeter): 30.06 inches Hg (1018.0 mb)
Winds: calm
Visibility: 0.28 miles (0.45 km)
Ceiling: indefinite ceiling with vertical visibility of 0 feet AGL
Clouds: obscured sky
Weather: FG  (fog)

METAR text: LFRH 172000Z AUTO 00000KT 0500 0250 R25/0500D R07/0750D FG FEW003 SCT008 BKN170 08/08 Q1018 BECMG 2000 BR
Conditions at: LFRH (LORIENT/LANN BIH, FR) observed 2000 UTC 17 February 2019
Temperature: 8.0°C (46°F)
Dewpoint: 8.0°C (46°F) [RH = 100%]
Pressure (altimeter): 30.06 inches Hg (1018.0 mb)
Winds: calm
Visibility: 0.31 miles (0.50 km)
Ceiling: 17000 feet AGL
Clouds: few clouds at 300 feet AGL
scattered clouds at 800 feet AGL
broken clouds at 17000 feet AGL
Weather: FG  (fog)

METAR text: LFRH 171930Z AUTO 14003KT 5000 BR NSC 08/08 Q1017 BECMG 2000 BR
Conditions at: LFRH (LORIENT/LANN BIH, FR) observed 1930 UTC 17 February 2019
Temperature: 8.0°C (46°F)
Dewpoint: 8.0°C (46°F) [RH = 100%]
Pressure (altimeter): 30.03 inches Hg (1017.0 mb)
Winds: from the SE (140 degrees) at 3 MPH (3 knots; 1.5 m/s)
Visibility: 3 miles ( 5 km)
Ceiling: at least 12,000 feet AGL
Clouds: sky clear below 12,000 feet AGL
Weather: BR  (mist)

METAR text: LFRH 171900Z AUTO 14003KT 7000 NSC 08/08 Q1017 BECMG 23010KT
Conditions at: LFRH (LORIENT/LANN BIH, FR) observed 1900 UTC 17 February 2019
Temperature: 8.0°C (46°F)
Dewpoint: 8.0°C (46°F) [RH = 100%]
Pressure (altimeter): 30.03 inches Hg (1017.0 mb)
Winds: from the SE (140 degrees) at 3 MPH (3 knots; 1.5 m/s)
Visibility: 4 miles ( 7 km)
Ceiling: at least 12,000 feet AGL
Clouds: sky clear below 12,000 feet AGL
Weather: no significant weather observed at this time

METAR text: LFRH 171830Z AUTO 18004KT CAVOK 09/08 Q1017 NOSIG
Conditions at: LFRH (LORIENT/LANN BIH, FR) observed 1830 UTC 17 February 2019
Temperature: 9.0°C (48°F)
Dewpoint: 8.0°C (46°F) [RH = 93%]
Pressure (altimeter): 30.03 inches Hg (1017.0 mb)
Winds: from the S (180 degrees) at 5 MPH (4 knots; 2.1 m/s)
Visibility: 6 or more miles (10+ km)
Ceiling: ceiling and visibility are OK
Clouds: unknown
Weather: no significant weather observed at this time

METAR text: LFRH 171800Z AUTO 20004KT 9999 FEW031 10/08 Q1017 NOSIG
Conditions at: LFRH (LORIENT/LANN BIH, FR) observed 1800 UTC 17 February 2019
Temperature: 10.0°C (50°F)
Dewpoint: 8.0°C (46°F) [RH = 87%]
Pressure (altimeter): 30.03 inches Hg (1017.0 mb)
Winds: from the SSW (200 degrees) at 5 MPH (4 knots; 2.1 m/s)
Visibility: 6 or more miles (10+ km)
Ceiling: at least 12,000 feet AGL
Clouds: few clouds at 3100 feet AGL
Weather: no significant weather observed at this time

METAR text: LFRH 171730Z AUTO 20004KT 9999 BKN031 OVC220 10/08 Q1017 NOSIG
Conditions at: LFRH (LORIENT/LANN BIH, FR) observed 1730 UTC 17 February 2019
Temperature: 10.0°C (50°F)
Dewpoint: 8.0°C (46°F) [RH = 87%]
Pressure (altimeter): 30.03 inches Hg (1017.0 mb)
Winds: from the SSW (200 degrees) at 5 MPH (4 knots; 2.1 m/s)
Visibility: 6 or more miles (10+ km)
Ceiling: 3100 feet AGL
Clouds: broken clouds at 3100 feet AGL
overcast cloud deck at 22000 feet AGL
Weather: no significant weather observed at this time

METAR text: LFRH 171700Z AUTO 22005KT 9999 FEW031 11/09 Q1017 NOSIG
Conditions at: LFRH (LORIENT/LANN BIH, FR) observed 1700 UTC 17 February 2019
Temperature: 11.0°C (52°F)
Dewpoint: 9.0°C (48°F) [RH = 87%]
Pressure (altimeter): 30.03 inches Hg (1017.0 mb)
Winds: from the SW (220 degrees) at 6 MPH (5 knots; 2.6 m/s)
Visibility: 6 or more miles (10+ km)
Ceiling: at least 12,000 feet AGL
Clouds: few clouds at 3100 feet AGL
Weather: no significant weather observed at this time

METAR text: LFRH 171630Z AUTO 23007KT CAVOK 12/09 Q1017 NOSIG
Conditions at: LFRH (LORIENT/LANN BIH, FR) observed 1630 UTC 17 February 2019
Temperature: 12.0°C (54°F)
Dewpoint: 9.0°C (48°F) [RH = 82%]
Pressure (altimeter): 30.03 inches Hg (1017.0 mb)
Winds: from the SW (230 degrees) at 8 MPH (7 knots; 3.6 m/s)
Visibility: 6 or more miles (10+ km)
Ceiling: ceiling and visibility are OK
Clouds: unknown
Weather: no significant weather observed at this time

METAR text: LFRH 171600Z AUTO 23010KT CAVOK 13/09 Q1017 NOSIG
Conditions at: LFRH (LORIENT/LANN BIH, FR) observed 1600 UTC 17 February 2019
Temperature: 13.0°C (55°F)
Dewpoint: 9.0°C (48°F) [RH = 77%]
Pressure (altimeter): 30.03 inches Hg (1017.0 mb)
Winds: from the SW (230 degrees) at 12 MPH (10 knots; 5.1 m/s)
Visibility: 6 or more miles (10+ km)
Ceiling: ceiling and visibility are OK
Clouds: unknown
Weather: no significant weather observed at this time

METAR text: LFRH 171530Z AUTO 21008KT 9999 FEW008 SCT068 13/10 Q1017 NOSIG
Conditions at: LFRH (LORIENT/LANN BIH, FR) observed 1530 UTC 17 February 2019
Temperature: 13.0°C (55°F)
Dewpoint: 10.0°C (50°F) [RH = 82%]
Pressure (altimeter): 30.03 inches Hg (1017.0 mb)
Winds: from the SSW (210 degrees) at 9 MPH (8 knots; 4.1 m/s)
Visibility: 6 or more miles (10+ km)
Ceiling: at least 12,000 feet AGL
Clouds: few clouds at 800 feet AGL
scattered clouds at 6800 feet AGL
Weather: no significant weather observed at this time

METAR text: LFRH 171500Z AUTO 21010KT 9999 FEW009 BKN060 BKN170 13/10 Q1017 NOSIG
Conditions at: LFRH (LORIENT/LANN BIH, FR) observed 1500 UTC 17 February 2019
Temperature: 13.0°C (55°F)
Dewpoint: 10.0°C (50°F) [RH = 82%]
Pressure (altimeter): 30.03 inches Hg (1017.0 mb)
Winds: from the SSW (210 degrees) at 12 MPH (10 knots; 5.1 m/s)
Visibility: 6 or more miles (10+ km)
Ceiling: 6000 feet AGL
Clouds: few clouds at 900 feet AGL
broken clouds at 6000 feet AGL
broken clouds at 17000 feet AGL
Weather: no significant weather observed at this time

METAR text: LFRH 171430Z AUTO 21010KT 9999 FEW012 BKN044 13/11 Q1017 NOSIG
Conditions at: LFRH (LORIENT/LANN BIH, FR) observed 1430 UTC 17 February 2019
Temperature: 13.0°C (55°F)
Dewpoint: 11.0°C (52°F) [RH = 88%]
Pressure (altimeter): 30.03 inches Hg (1017.0 mb)
Winds: from the SSW (210 degrees) at 12 MPH (10 knots; 5.1 m/s)
Visibility: 6 or more miles (10+ km)
Ceiling: 4400 feet AGL
Clouds: few clouds at 1200 feet AGL
broken clouds at 4400 feet AGL
Weather: no significant weather observed at this time

METAR text: LFRH 171400Z AUTO 21011KT 9999 FEW012 OVC043 13/11 Q1017 TEMPO BKN008
Conditions at: LFRH (LORIENT/LANN BIH, FR) observed 1400 UTC 17 February 2019
Temperature: 13.0°C (55°F)
Dewpoint: 11.0°C (52°F) [RH = 88%]
Pressure (altimeter): 30.03 inches Hg (1017.0 mb)
Winds: from the SSW (210 degrees) at 13 MPH (11 knots; 5.7 m/s)
Visibility: 6 or more miles (10+ km)
Ceiling: 4300 feet AGL
Clouds: few clouds at 1200 feet AGL
overcast cloud deck at 4300 feet AGL
Weather: no significant weather observed at this time

METAR text: LFRH 171330Z AUTO 20011KT 9999 SCT013 BKN018 BKN025 13/10 Q1017 TEMPO BKN008
Conditions at: LFRH (LORIENT/LANN BIH, FR) observed 1330 UTC 17 February 2019
Temperature: 13.0°C (55°F)
Dewpoint: 10.0°C (50°F) [RH = 82%]
Pressure (altimeter): 30.03 inches Hg (1017.0 mb)
Winds: from the SSW (200 degrees) at 13 MPH (11 knots; 5.7 m/s)
Visibility: 6 or more miles (10+ km)
Ceiling: 1800 feet AGL
Clouds: scattered clouds at 1300 feet AGL
broken clouds at 1800 feet AGL
broken clouds at 2500 feet AGL
Weather: no significant weather observed at this time

METAR text: LFRH 171300Z AUTO 21011KT 9999 SCT015 SCT021 BKN026 14/10 Q1017 TEMPO BKN008
Conditions at: LFRH (LORIENT/LANN BIH, FR) observed 1300 UTC 17 February 2019
Temperature: 14.0°C (57°F)
Dewpoint: 10.0°C (50°F) [RH = 77%]
Pressure (altimeter): 30.03 inches Hg (1017.0 mb)
Winds: from the SSW (210 degrees) at 13 MPH (11 knots; 5.7 m/s)
Visibility: 6 or more miles (10+ km)
Ceiling: 2600 feet AGL
Clouds: scattered clouds at 1500 feet AGL
scattered clouds at 2100 feet AGL
broken clouds at 2600 feet AGL
Weather: no significant weather observed at this time

METAR text: LFRH 171230Z AUTO 21010KT 9999 FEW011 BKN023 BKN028 14/11 Q1017 TEMPO BKN008
Conditions at: LFRH (LORIENT/LANN BIH, FR) observed 1230 UTC 17 February 2019
Temperature: 14.0°C (57°F)
Dewpoint: 11.0°C (52°F) [RH = 82%]
Pressure (altimeter): 30.03 inches Hg (1017.0 mb)
Winds: from the SSW (210 degrees) at 12 MPH (10 knots; 5.1 m/s)
Visibility: 6 or more miles (10+ km)
Ceiling: 2300 feet AGL
Clouds: few clouds at 1100 feet AGL
broken clouds at 2300 feet AGL
broken clouds at 2800 feet AGL
Weather: no significant weather observed at this time

METAR text: LFRH 171200Z AUTO 22009KT 9999 FEW014 BKN020 13/11 Q1017 TEMPO BKN008
Conditions at: LFRH (LORIENT/LANN BIH, FR) observed 1200 UTC 17 February 2019
Temperature: 13.0°C (55°F)
Dewpoint: 11.0°C (52°F) [RH = 88%]
Pressure (altimeter): 30.03 inches Hg (1017.0 mb)
Winds: from the SW (220 degrees) at 10 MPH (9 knots; 4.6 m/s)
Visibility: 6 or more miles (10+ km)
Ceiling: 2000 feet AGL
Clouds: few clouds at 1400 feet AGL
broken clouds at 2000 feet AGL
Weather: no significant weather observed at this time

METAR text: LFRH 171130Z AUTO 21010KT 180V240 9999 FEW014 SCT021 13/11 Q1017 TEMPO BKN008
Conditions at: LFRH (LORIENT/LANN BIH, FR) observed 1130 UTC 17 February 2019
Temperature: 13.0°C (55°F)
Dewpoint: 11.0°C (52°F) [RH = 88%]
Pressure (altimeter): 30.03 inches Hg (1017.0 mb)
Winds: from the SSW (210 degrees) at 12 MPH (10 knots; 5.1 m/s)
Visibility: 6 or more miles (10+ km)
Ceiling: at least 12,000 feet AGL
Clouds: few clouds at 1400 feet AGL
scattered clouds at 2100 feet AGL
Weather: no significant weather observed at this time

METAR text: LFRH 171100Z AUTO 20008KT CAVOK 13/11 Q1017 TEMPO BKN008
Conditions at: LFRH (LORIENT/LANN BIH, FR) observed 1100 UTC 17 February 2019
Temperature: 13.0°C (55°F)
Dewpoint: 11.0°C (52°F) [RH = 88%]
Pressure (altimeter): 30.03 inches Hg (1017.0 mb)
Winds: from the SSW (200 degrees) at 9 MPH (8 knots; 4.1 m/s)
Visibility: 6 or more miles (10+ km)
Ceiling: ceiling and visibility are OK
Clouds: unknown
Weather: no significant weather observed at this time

METAR text: LFRH 171030Z AUTO 20007KT CAVOK 12/10 Q1017 TEMPO BKN008
Conditions at: LFRH (LORIENT/LANN BIH, FR) observed 1030 UTC 17 February 2019
Temperature: 12.0°C (54°F)
Dewpoint: 10.0°C (50°F) [RH = 88%]
Pressure (altimeter): 30.03 inches Hg (1017.0 mb)
Winds: from the SSW (200 degrees) at 8 MPH (7 knots; 3.6 m/s)
Visibility: 6 or more miles (10+ km)
Ceiling: ceiling and visibility are OK
Clouds: unknown
Weather: no significant weather observed at this time

METAR text: LFRH 171000Z AUTO 21008KT CAVOK 12/10 Q1017 NOSIG
Conditions at: LFRH (LORIENT/LANN BIH, FR) observed 1000 UTC 17 February 2019
Temperature: 12.0°C (54°F)
Dewpoint: 10.0°C (50°F) [RH = 88%]
Pressure (altimeter): 30.03 inches Hg (1017.0 mb)
Winds: from the SSW (210 degrees) at 9 MPH (8 knots; 4.1 m/s)
Visibility: 6 or more miles (10+ km)
Ceiling: ceiling and visibility are OK
Clouds: unknown
Weather: no significant weather observed at this time

METAR text: LFRH 170930Z AUTO 21008KT CAVOK 12/11 Q1017 NOSIG
Conditions at: LFRH (LORIENT/LANN BIH, FR) observed 0930 UTC 17 February 2019
Temperature: 12.0°C (54°F)
Dewpoint: 11.0°C (52°F) [RH = 94%]
Pressure (altimeter): 30.03 inches Hg (1017.0 mb)
Winds: from the SSW (210 degrees) at 9 MPH (8 knots; 4.1 m/s)
Visibility: 6 or more miles (10+ km)
Ceiling: ceiling and visibility are OK
Clouds: unknown
Weather: no significant weather observed at this time

METAR text: LFRH 170900Z AUTO 19006KT 9999 FEW007 11/11 Q1017 NOSIG
Conditions at: LFRH (LORIENT/LANN BIH, FR) observed 0900 UTC 17 February 2019
Temperature: 11.0°C (52°F)
Dewpoint: 11.0°C (52°F) [RH = 100%]
Pressure (altimeter): 30.03 inches Hg (1017.0 mb)
Winds: from the S (190 degrees) at 7 MPH (6 knots; 3.1 m/s)
Visibility: 6 or more miles (10+ km)
Ceiling: at least 12,000 feet AGL
Clouds: few clouds at 700 feet AGL
Weather: no significant weather observed at this time

METAR text: LFRH 170830Z AUTO 15003KT 130V190 4700 BR FEW003 09/09 Q1017 BECMG 9999 NSW
Conditions at: LFRH (LORIENT/LANN BIH, FR) observed 0830 UTC 17 February 2019
Temperature: 9.0°C (48°F)
Dewpoint: 9.0°C (48°F) [RH = 100%]
Pressure (altimeter): 30.03 inches Hg (1017.0 mb)
Winds: from the SSE (150 degrees) at 3 MPH (3 knots; 1.5 m/s)
Visibility: 2.92 miles (4.70 km)
Ceiling: at least 12,000 feet AGL
Clouds: few clouds at 300 feet AGL
Weather: BR  (mist)

METAR text: LFRH 170800Z AUTO 13005KT 0400 0350 R25/0550U R07/0700D FG FEW003 BKN013 BKN023 08/08 Q1016 BECMG 20010KT 9999 NSW BKN016
Conditions at: LFRH (LORIENT/LANN BIH, FR) observed 0800 UTC 17 February 2019
Temperature: 8.0°C (46°F)
Dewpoint: 8.0°C (46°F) [RH = 100%]
Pressure (altimeter): 30.00 inches Hg (1016.0 mb)
Winds: from the SE (130 degrees) at 6 MPH (5 knots; 2.6 m/s)
Visibility: 0.25 miles (0.40 km)
Ceiling: 1300 feet AGL
Clouds: few clouds at 300 feet AGL
broken clouds at 1300 feet AGL
broken clouds at 2300 feet AGL
Weather: FG  (fog)

METAR text: LFRH 170730Z AUTO 13004KT 0600 0500 R25/0550D R07/1400D FG FEW004 SCT009 BKN019 07/07 Q1016 BECMG 20010KT 9999 NSW
Conditions at: LFRH (LORIENT/LANN BIH, FR) observed 0730 UTC 17 February 2019
Temperature: 7.0°C (45°F)
Dewpoint: 7.0°C (45°F) [RH = 100%]
Pressure (altimeter): 30.00 inches Hg (1016.0 mb)
Winds: from the SE (130 degrees) at 5 MPH (4 knots; 2.1 m/s)
Visibility: 0.37 miles (0.60 km)
Ceiling: 1900 feet AGL
Clouds: few clouds at 400 feet AGL
scattered clouds at 900 feet AGL
broken clouds at 1900 feet AGL
Weather: FG  (fog)

METAR text: LFRH 170700Z AUTO 14005KT 1100 0750 R25/1100D R07/1800D BCFG FEW006 SCT013 07/07 Q1016 BECMG 20010KT 9999 NSW
Conditions at: LFRH (LORIENT/LANN BIH, FR) observed 0700 UTC 17 February 2019
Temperature: 7.0°C (45°F)
Dewpoint: 7.0°C (45°F) [RH = 100%]
Pressure (altimeter): 30.00 inches Hg (1016.0 mb)
Winds: from the SE (140 degrees) at 6 MPH (5 knots; 2.6 m/s)
Visibility: 0.68 miles (1.09 km)
Ceiling: at least 12,000 feet AGL
Clouds: few clouds at 600 feet AGL
scattered clouds at 1300 feet AGL
Weather: BCFG  (patches of fog)

METAR text: LFRH 170630Z AUTO 14004KT 1500 1100 R25/1400D R07/P2000 BR NSC 07/06 Q1016 BECMG 20010KT 9999 NSW
Conditions at: LFRH (LORIENT/LANN BIH, FR) observed 0630 UTC 17 February 2019
Temperature: 7.0°C (45°F)
Dewpoint: 6.0°C (43°F) [RH = 93%]
Pressure (altimeter): 30.00 inches Hg (1016.0 mb)
Winds: from the SE (140 degrees) at 5 MPH (4 knots; 2.1 m/s)
Visibility: 0.93 miles (1.50 km)
Ceiling: at least 12,000 feet AGL
Clouds: sky clear below 12,000 feet AGL
Weather: BR  (mist)

METAR text: LFRH 170600Z AUTO 14005KT 2700 1400 R25/P2000 R07/1900U BR NSC 07/07 Q1016 NOSIG
Conditions at: LFRH (LORIENT/LANN BIH, FR) observed 0600 UTC 17 February 2019
Temperature: 7.0°C (45°F)
Dewpoint: 7.0°C (45°F) [RH = 100%]
Pressure (altimeter): 30.00 inches Hg (1016.0 mb)
Winds: from the SE (140 degrees) at 6 MPH (5 knots; 2.6 m/s)
Visibility: 1.68 miles (2.70 km)
Ceiling: at least 12,000 feet AGL
Clouds: sky clear below 12,000 feet AGL
Weather: BR  (mist)

METAR text: LFRH 170530Z AUTO 14003KT 3600 0900 R25/P2000 R07/P2000 BCFG NSC 08/07 Q1016 TEMPO 2500 BR
Conditions at: LFRH (LORIENT/LANN BIH, FR) observed 0530 UTC 17 February 2019
Temperature: 8.0°C (46°F)
Dewpoint: 7.0°C (45°F) [RH = 93%]
Pressure (altimeter): 30.00 inches Hg (1016.0 mb)
Winds: from the SE (140 degrees) at 3 MPH (3 knots; 1.5 m/s)
Visibility: 2.24 miles (3.60 km)
Ceiling: at least 12,000 feet AGL
Clouds: sky clear below 12,000 feet AGL
Weather: BCFG  (patches of fog)

METAR text: LFRH 170500Z AUTO 13005KT 6000 NSC 08/07 Q1016 TEMPO 0500 BECMG VV///
Conditions at: LFRH (LORIENT/LANN BIH, FR) observed 0500 UTC 17 February 2019
Temperature: 8.0°C (46°F)
Dewpoint: 7.0°C (45°F) [RH = 93%]
Pressure (altimeter): 30.00 inches Hg (1016.0 mb)
Winds: from the SE (130 degrees) at 6 MPH (5 knots; 2.6 m/s)
Visibility: 4 miles ( 6 km)
Ceiling: at least 12,000 feet AGL
Clouds: sky clear below 12,000 feet AGL
Weather: no significant weather observed at this time

METAR text: LFRH 170430Z AUTO 13003KT 7000 NSC 08/07 Q1016 TEMPO 0500 BECMG VV///
Conditions at: LFRH (LORIENT/LANN BIH, FR) observed 0430 UTC 17 February 2019
Temperature: 8.0°C (46°F)
Dewpoint: 7.0°C (45°F) [RH = 93%]
Pressure (altimeter): 30.00 inches Hg (1016.0 mb)
Winds: from the SE (130 degrees) at 3 MPH (3 knots; 1.5 m/s)
Visibility: 4 miles ( 7 km)
Ceiling: at least 12,000 feet AGL
Clouds: sky clear below 12,000 feet AGL
Weather: no significant weather observed at this time

METAR text: LFRH 170400Z AUTO 11007KT 6000 NSC 07/06 Q1016 TEMPO 0500 BECMG VV///
Conditions at: LFRH (LORIENT/LANN BIH, FR) observed 0400 UTC 17 February 2019
Temperature: 7.0°C (45°F)
Dewpoint: 6.0°C (43°F) [RH = 93%]
Pressure (altimeter): 30.00 inches Hg (1016.0 mb)
Winds: from the ESE (110 degrees) at 8 MPH (7 knots; 3.6 m/s)
Visibility: 4 miles ( 6 km)
Ceiling: at least 12,000 feet AGL
Clouds: sky clear below 12,000 feet AGL
Weather: no significant weather observed at this time

METAR text: LFRH 170330Z AUTO 13007KT 7000 NSC 07/07 Q1016 TEMPO 0500 BECMG VV///
Conditions at: LFRH (LORIENT/LANN BIH, FR) observed 0330 UTC 17 February 2019
Temperature: 7.0°C (45°F)
Dewpoint: 7.0°C (45°F) [RH = 100%]
Pressure (altimeter): 30.00 inches Hg (1016.0 mb)
Winds: from the SE (130 degrees) at 8 MPH (7 knots; 3.6 m/s)
Visibility: 4 miles ( 7 km)
Ceiling: at least 12,000 feet AGL
Clouds: sky clear below 12,000 feet AGL
Weather: no significant weather observed at this time

METAR text: LFRH 170300Z AUTO 13007KT 7000 NSC 07/07 Q1016 TEMPO 0500 BECMG VV///
Conditions at: LFRH (LORIENT/LANN BIH, FR) observed 0300 UTC 17 February 2019
Temperature: 7.0°C (45°F)
Dewpoint: 7.0°C (45°F) [RH = 100%]
Pressure (altimeter): 30.00 inches Hg (1016.0 mb)
Winds: from the SE (130 degrees) at 8 MPH (7 knots; 3.6 m/s)
Visibility: 4 miles ( 7 km)
Ceiling: at least 12,000 feet AGL
Clouds: sky clear below 12,000 feet AGL
Weather: no significant weather observed at this time

METAR text: LFRH 170230Z AUTO 11006KT 6000 NSC 06/06 Q1017 TEMPO 0500 BECMG VV///
Conditions at: LFRH (LORIENT/LANN BIH, FR) observed 0230 UTC 17 February 2019
Temperature: 6.0°C (43°F)
Dewpoint: 6.0°C (43°F) [RH = 100%]
Pressure (altimeter): 30.03 inches Hg (1017.0 mb)
Winds: from the ESE (110 degrees) at 7 MPH (6 knots; 3.1 m/s)
Visibility: 4 miles ( 6 km)
Ceiling: at least 12,000 feet AGL
Clouds: sky clear below 12,000 feet AGL
Weather: no significant weather observed at this time

METAR text: LFRH 170200Z AUTO 12006KT 7000 NSC 06/05 Q1017 TEMPO 0500 BECMG VV///
Conditions at: LFRH (LORIENT/LANN BIH, FR) observed 0200 UTC 17 February 2019
Temperature: 6.0°C (43°F)
Dewpoint: 5.0°C (41°F) [RH = 93%]
Pressure (altimeter): 30.03 inches Hg (1017.0 mb)
Winds: from the ESE (120 degrees) at 7 MPH (6 knots; 3.1 m/s)
Visibility: 4 miles ( 7 km)
Ceiling: at least 12,000 feet AGL
Clouds: sky clear below 12,000 feet AGL
Weather: no significant weather observed at this time

METAR text: LFRH 170130Z AUTO 11008KT 7000 NSC 05/05 Q1017 TEMPO 0500 BECMG VV///
Conditions at: LFRH (LORIENT/LANN BIH, FR) observed 0130 UTC 17 February 2019
Temperature: 5.0°C (41°F)
Dewpoint: 5.0°C (41°F) [RH = 100%]
Pressure (altimeter): 30.03 inches Hg (1017.0 mb)
Winds: from the ESE (110 degrees) at 9 MPH (8 knots; 4.1 m/s)
Visibility: 4 miles ( 7 km)
Ceiling: at least 12,000 feet AGL
Clouds: sky clear below 12,000 feet AGL
Weather: no significant weather observed at this time

METAR text: LFRH 170100Z AUTO 11008KT 6000 NSC 05/04 Q1018 TEMPO 0500 BECMG VV///
Conditions at: LFRH (LORIENT/LANN BIH, FR) observed 0100 UTC 17 February 2019
Temperature: 5.0°C (41°F)
Dewpoint: 4.0°C (39°F) [RH = 93%]
Pressure (altimeter): 30.06 inches Hg (1018.0 mb)
Winds: from the ESE (110 degrees) at 9 MPH (8 knots; 4.1 m/s)
Visibility: 4 miles ( 6 km)
Ceiling: at least 12,000 feet AGL
Clouds: sky clear below 12,000 feet AGL
Weather: no significant weather observed at this time

METAR text: LFRH 170030Z AUTO 10008KT 6000 NSC 05/05 Q1018 TEMPO 0500 BECMG VV///
Conditions at: LFRH (LORIENT/LANN BIH, FR) observed 0030 UTC 17 February 2019
Temperature: 5.0°C (41°F)
Dewpoint: 5.0°C (41°F) [RH = 100%]
Pressure (altimeter): 30.06 inches Hg (1018.0 mb)
Winds: from the E (100 degrees) at 9 MPH (8 knots; 4.1 m/s)
Visibility: 4 miles ( 6 km)
Ceiling: at least 12,000 feet AGL
Clouds: sky clear below 12,000 feet AGL
Weather: no significant weather observed at this time

METAR text: LFRH 170000Z AUTO 10008KT 6000 NSC 06/05 Q1019 BECMG 0800 FG VV///
Conditions at: LFRH (LORIENT/LANN BIH, FR) observed 0000 UTC 17 February 2019
Temperature: 6.0°C (43°F)
Dewpoint: 5.0°C (41°F) [RH = 93%]
Pressure (altimeter): 30.09 inches Hg (1019.0 mb)
Winds: from the E (100 degrees) at 9 MPH (8 knots; 4.1 m/s)
Visibility: 4 miles ( 6 km)
Ceiling: at least 12,000 feet AGL
Clouds: sky clear below 12,000 feet AGL
Weather: no significant weather observed at this time

METAR text: LFRH 162330Z AUTO 11008KT 5000 BR NSC 06/06 Q1019 BECMG 0800 FG VV///
Conditions at: LFRH (LORIENT/LANN BIH, FR) observed 2330 UTC 16 February 2019
Temperature: 6.0°C (43°F)
Dewpoint: 6.0°C (43°F) [RH = 100%]
Pressure (altimeter): 30.09 inches Hg (1019.0 mb)
Winds: from the ESE (110 degrees) at 9 MPH (8 knots; 4.1 m/s)
Visibility: 3 miles ( 5 km)
Ceiling: at least 12,000 feet AGL
Clouds: sky clear below 12,000 feet AGL
Weather: BR  (mist)

METAR text: LFRH 162300Z AUTO 12007KT 5000 BR NSC 06/06 Q1019 TEMPO 0500
Conditions at: LFRH (LORIENT/LANN BIH, FR) observed 2300 UTC 16 February 2019
Temperature: 6.0°C (43°F)
Dewpoint: 6.0°C (43°F) [RH = 100%]
Pressure (altimeter): 30.09 inches Hg (1019.0 mb)
Winds: from the ESE (120 degrees) at 8 MPH (7 knots; 3.6 m/s)
Visibility: 3 miles ( 5 km)
Ceiling: at least 12,000 feet AGL
Clouds: sky clear below 12,000 feet AGL
Weather: BR  (mist)

METAR text: LFRH 162230Z AUTO 13008KT 5000 BR NSC 07/07 Q1020 TEMPO 0500
Conditions at: LFRH (LORIENT/LANN BIH, FR) observed 2230 UTC 16 February 2019
Temperature: 7.0°C (45°F)
Dewpoint: 7.0°C (45°F) [RH = 100%]
Pressure (altimeter): 30.12 inches Hg (1020.0 mb)
Winds: from the SE (130 degrees) at 9 MPH (8 knots; 4.1 m/s)
Visibility: 3 miles ( 5 km)
Ceiling: at least 12,000 feet AGL
Clouds: sky clear below 12,000 feet AGL
Weather: BR  (mist)

METAR text: LFRH 162200Z AUTO 13008KT 5000 BR NSC 06/06 Q1020 TEMPO 0500
Conditions at: LFRH (LORIENT/LANN BIH, FR) observed 2200 UTC 16 February 2019
Temperature: 6.0°C (43°F)
Dewpoint: 6.0°C (43°F) [RH = 100%]
Pressure (altimeter): 30.12 inches Hg (1020.0 mb)
Winds: from the SE (130 degrees) at 9 MPH (8 knots; 4.1 m/s)
Visibility: 3 miles ( 5 km)
Ceiling: at least 12,000 feet AGL
Clouds: sky clear below 12,000 feet AGL
Weather: BR  (mist)

METAR text: LFRH 162130Z AUTO 12007KT 3000 BR NSC 06/06 Q1020 TEMPO 0500
Conditions at: LFRH (LORIENT/LANN BIH, FR) observed 2130 UTC 16 February 2019
Temperature: 6.0°C (43°F)
Dewpoint: 6.0°C (43°F) [RH = 100%]
Pressure (altimeter): 30.12 inches Hg (1020.0 mb)
Winds: from the ESE (120 degrees) at 8 MPH (7 knots; 3.6 m/s)
Visibility: 1.86 miles (2.99 km)
Ceiling: at least 12,000 feet AGL
Clouds: sky clear below 12,000 feet AGL
Weather: BR  (mist)

METAR text: LFRH 162100Z AUTO 11008KT 3200 BR NSC 06/06 Q1020 TEMPO 0500 BECMG VV///
Conditions at: LFRH (LORIENT/LANN BIH, FR) observed 2100 UTC 16 February 2019
Temperature: 6.0°C (43°F)
Dewpoint: 6.0°C (43°F) [RH = 100%]
Pressure (altimeter): 30.12 inches Hg (1020.0 mb)
Winds: from the ESE (110 degrees) at 9 MPH (8 knots; 4.1 m/s)
Visibility: 1.99 miles (3.20 km)
Ceiling: at least 12,000 feet AGL
Clouds: sky clear below 12,000 feet AGL
Weather: BR  (mist)

METAR text: LFRH 162030Z AUTO 11008KT 4000 BR NSC 07/06 Q1020 TEMPO 0500 BECMG VV///
Conditions at: LFRH (LORIENT/LANN BIH, FR) observed 2030 UTC 16 February 2019
Temperature: 7.0°C (45°F)
Dewpoint: 6.0°C (43°F) [RH = 93%]
Pressure (altimeter): 30.12 inches Hg (1020.0 mb)
Winds: from the ESE (110 degrees) at 9 MPH (8 knots; 4.1 m/s)
Visibility: 2.49 miles (4.01 km)
Ceiling: at least 12,000 feet AGL
Clouds: sky clear below 12,000 feet AGL
Weather: BR  (mist)

METAR text: LFRH 162000Z AUTO 11008KT 4500 BR FEW005 07/07 Q1021 BECMG 0800 FG VV///
Conditions at: LFRH (LORIENT/LANN BIH, FR) observed 2000 UTC 16 February 2019
Temperature: 7.0°C (45°F)
Dewpoint: 7.0°C (45°F) [RH = 100%]
Pressure (altimeter): 30.15 inches Hg (1021.0 mb)
Winds: from the ESE (110 degrees) at 9 MPH (8 knots; 4.1 m/s)
Visibility: 2.80 miles (4.51 km)
Ceiling: at least 12,000 feet AGL
Clouds: few clouds at 500 feet AGL
Weather: BR  (mist)

Forecast for: AMD
Text: TAF AMD LFRH 180607Z 1806/1906 VRB03KT 3000 BR BKN045
Forecast period: 0600 to 0800 UTC 18 February 2019
Forecast type: FROM: standard forecast or significant change
Winds: variable direction winds at 3 MPH (3 knots; 1.5 m/s)
Visibility: 1.86 miles (2.99 km)
Ceiling: 4500 feet AGL
Clouds: broken clouds at 4500 feet AGL
Weather: BR  (mist)
Text: TEMPO 1806/1808 1000 BCFG BKN001
Forecast period: 0600 to 0800 UTC 18 February 2019
Forecast type: TEMPORARY: The following changes expected for less than half the time period
Visibility: 0.62 miles (1.00 km)
Ceiling: 100 feet AGL
Clouds: broken clouds at 100 feet AGL
Weather: BCFG  (patches of fog)
Text: BECMG 1808/1810 21010KT 9999 NSW
Forecast period: 0800 to 1800 UTC 18 February 2019
Forecast type: BECOMING: Conditions expected to become as follows by 1000 UTC 18 February 2019
Winds: from the SSW (210 degrees) at 12 MPH (10 knots; 5.1 m/s)
Visibility: 6 or more miles 10+ km)
Ceiling: 4500 feet AGL
Clouds: broken clouds at 4500 feet AGL
Weather: NSW  (no significant weather)
Text: TEMPO 1811/1814 4000 -RADZ BKN015
Forecast period: 1100 to 1400 UTC 18 February 2019
Forecast type: TEMPORARY: The following changes expected for less than half the time period
Visibility: 2.49 miles (4.01 km)
Ceiling: 1500 feet AGL
Clouds: broken clouds at 1500 feet AGL
Weather: -RA -DZ  (light rain, light drizzle)
Text: PROB30
Forecast period: 1400 to 1700 UTC 18 February 2019
Forecast type: TEMPORARY: The following changes expected for less than half the time period
Visibility: 2.49 miles (4.01 km)
Ceiling: 1200 feet AGL
Clouds: broken clouds at 1200 feet AGL
Weather: -SHRA  (light rain showers)
Text: TEMPO 1814/1817 4000 -SHRA BKN012TCU
Forecast period: 1800 to 2300 UTC 18 February 2019
Forecast type: BECOMING: Conditions expected to become as follows by 2000 UTC 18 February 2019
Winds: variable direction winds at 3 MPH (3 knots; 1.5 m/s)
Visibility: 1.24 miles (2.00 km)
Ceiling: 4500 feet AGL
Clouds: broken clouds at 4500 feet AGL
Weather: BR  (mist)
Text: BECMG 1818/1820 VRB03KT 2000 BR
Forecast period: 2300 UTC 18 February 2019 to 0600 UTC 19 February 2019
Forecast type: BECOMING: Conditions expected to become as follows by 0100 UTC 19 February 2019
Winds: variable direction winds at 3 MPH (3 knots; 1.5 m/s)
Visibility: 0.31 miles (0.50 km)
Ceiling: 4500 feet AGL
Clouds: broken clouds at 4500 feet AGL
Weather: FG  (fog)